Time;durP1;ratioP1;P1;durP2;ratioP2;P2;SDS_P1;SDS_P2;PMS_P1;PMS_P2;Temp;Humidity;BMP_temperature;BMP_pressure;BME280_temperature;BME280_humidity;BME280_pressure;Samples;Min_cycle;Max_cycle;Signal;HPM_P1;HPM_P2
2022/10/03 00:00:15;;;;;;;;;12.67;11.00;;;;;16.42;74.12;28935.31;4995977;28;45657;-74
2022/10/03 00:03:13;;;;;;;;;11.67;11.00;;;;;16.42;74.19;28222.00;5004093;28;45523;-73
2022/10/03 00:06:08;;;;;;;;;12.33;10.67;;;;;16.39;73.84;28466.13;5012723;28;45376;-73
2022/10/03 00:09:08;;;;;;;;;13.67;12.33;;;;;16.35;73.90;29209.28;5001993;28;45522;-74
2022/10/03 00:11:46;;;;;;;;;10.67;8.67;;;;;16.33;74.00;28782.88;4994101;27;45464;-74
2022/10/03 00:14:38;;;;;;;;;11.00;10.67;;;;;16.30;74.21;29145.59;5011935;28;45442;-74
2022/10/03 00:17:13;;;;;;;;;11.67;11.67;;;;;16.31;74.06;29352.19;5011262;28;46542;-74
2022/10/03 00:20:02;;;;;;;;;13.67;11.67;;;;;16.27;74.39;29556.09;5014976;28;45315;-74
2022/10/03 00:22:36;;;;;;;;;9.00;9.00;;;;;16.27;74.29;30296.19;5016754;27;45633;-74
2022/10/03 00:25:26;;;;;;;;;10.67;10.67;;;;;16.20;74.61;30400.66;4979982;28;46058;-74
2022/10/03 00:28:02;;;;;;;;;13.00;13.00;;;;;16.24;74.30;30228.75;4996232;28;47660;-74
2022/10/03 00:30:41;;;;;;;;;15.33;12.33;;;;;16.22;74.29;29656.97;4984642;28;45347;-74
2022/10/03 00:33:22;;;;;;;;;13.33;11.33;;;;;16.22;74.11;29617.06;4988813;28;45342;-74
2022/10/03 00:36:15;;;;;;;;;13.33;11.33;;;;;16.20;73.88;28594.09;5014571;28;45479;-74
2022/10/03 00:39:01;;;;;;;;;11.67;10.67;;;;;16.20;73.90;28968.84;5007392;28;45547;-74
2022/10/03 00:41:57;;;;;;;;;10.67;10.67;;;;;16.19;74.10;29023.78;4999058;28;45586;-74
2022/10/03 00:44:36;;;;;;;;;16.67;11.67;;;;;16.20;74.14;28808.00;5010860;27;45470;-74
2022/10/03 00:47:24;;;;;;;;;11.67;11.00;;;;;16.20;74.20;28171.28;5013044;28;45960;-73
2022/10/03 00:50:20;;;;;;;;;12.00;11.67;;;;;16.18;73.79;27188.31;5014257;27;46406;-73
2022/10/03 00:53:02;;;;;;;;;9.67;9.67;;;;;16.16;73.67;26340.03;5006793;28;46275;-76
2022/10/03 00:55:40;;;;;;;;;11.67;10.67;;;;;16.12;73.78;27264.53;5010719;28;45425;-76
2022/10/03 00:58:38;;;;;;;;;11.33;10.67;;;;;16.10;74.04;27865.41;5013073;27;45449;-76
2022/10/03 01:01:28;;;;;;;;;12.67;11.67;;;;;16.10;73.58;27194.88;5028468;28;46189;-76
2022/10/03 01:04:18;;;;;;;;;11.00;11.00;;;;;16.10;73.75;26342.16;5034168;28;45493;-76
2022/10/03 01:06:51;;;;;;;;;13.67;10.33;;;;;16.07;73.51;26435.69;5020415;28;45595;-76
2022/10/03 01:09:32;;;;;;;;;12.00;12.00;;;;;15.96;73.65;26763.28;5011169;28;45418;-76
2022/10/03 01:12:16;;;;;;;;;15.67;13.33;;;;;16.07;73.97;27565.31;5017997;28;46261;-76
2022/10/03 01:15:15;;;;;;;;;15.67;15.67;;;;;16.06;74.20;28821.75;5018687;28;45529;-76
2022/10/03 01:18:04;;;;;;;;;13.67;13.00;;;;;16.07;73.95;27475.81;5027609;28;45412;-76
2022/10/03 01:20:38;;;;;;;;;16.00;16.00;;;;;16.07;73.99;27979.78;5031619;28;45541;-76
2022/10/03 01:23:25;;;;;;;;;16.33;16.33;;;;;16.03;74.11;27936.00;5016570;28;46327;-76
2022/10/03 01:26:29;;;;;;;;;13.00;11.00;;;;;15.99;73.89;26841.28;5017556;28;45597;-76
2022/10/03 01:32:05;;;;;;;;;16.00;13.67;;;;;16.00;74.16;28776.63;4997410;28;45391;-73
2022/10/03 01:34:51;;;;;;;;;9.00;9.00;;;;;16.01;74.14;28937.94;5016138;28;46361;-76
2022/10/03 01:37:22;;;;;;;;;14.33;12.67;;;;;16.02;74.51;29789.06;4999953;28;45324;-76
2022/10/03 01:39:57;;;;;;;;;20.00;13.00;;;;;16.04;74.69;30157.28;4991157;28;45290;-76
2022/10/03 01:42:43;;;;;;;;;13.33;13.33;;;;;16.00;74.65;30643.72;4996114;28;45418;-75
2022/10/03 01:45:53;;;;;;;;;11.67;11.67;;;;;16.07;74.70;31175.47;5001742;28;46320;-76
2022/10/03 01:48:39;;;;;;;;;13.00;11.33;;;;;16.07;74.89;30800.28;5024009;28;45275;-76
2022/10/03 01:51:26;;;;;;;;;15.67;12.67;;;;;16.16;75.22;31487.38;5036200;28;45442;-76
2022/10/03 01:54:15;;;;;;;;;14.33;13.33;;;;;16.18;75.16;31329.97;5035167;28;45449;-76
2022/10/03 01:57:00;;;;;;;;;15.33;14.00;;;;;16.21;74.96;31487.59;5030781;28;45484;-76
2022/10/03 01:59:41;;;;;;;;;15.67;13.00;;;;;16.22;75.17;31479.94;5027728;28;45430;-73
2022/10/03 02:02:16;;;;;;;;;15.00;13.00;;;;;16.22;75.21;31519.88;5012362;28;45466;-75
2022/10/03 02:05:08;;;;;;;;;14.67;14.00;;;;;16.17;75.22;31575.16;5034099;28;45390;-76
2022/10/03 02:07:42;;;;;;;;;14.33;13.67;;;;;16.29;75.42;31610.53;5031474;28;47253;-76
2022/10/03 02:10:45;;;;;;;;;15.67;13.33;;;;;16.31;75.05;31170.25;5031030;28;45393;-76
2022/10/03 02:13:24;;;;;;;;;15.67;12.67;;;;;16.34;75.28;31481.22;5034461;28;45402;-75
2022/10/03 02:16:06;;;;;;;;;11.00;11.00;;;;;16.38;75.04;31298.75;5029299;28;45615;-76
2022/10/03 02:18:44;;;;;;;;;11.33;9.67;;;;;16.41;75.31;30837.81;5033765;28;45559;-76
2022/10/03 02:21:17;;;;;;;;;12.67;12.33;;;;;16.41;74.74;30512.69;5031262;28;45454;-76
2022/10/03 02:23:45;;;;;;;;;10.00;8.33;;;;;16.45;74.88;30023.00;4980829;28;45598;-76
2022/10/03 02:26:19;;;;;;;;;13.00;10.00;;;;;16.44;74.67;30157.53;5001298;28;45404;-76
2022/10/03 02:28:44;;;;;;;;;15.67;12.67;;;;;16.46;75.12;30829.78;5004006;28;45610;-76
2022/10/03 02:31:37;;;;;;;;;15.33;11.33;;;;;16.43;74.86;30180.78;5014636;28;45358;-76
2022/10/03 02:34:40;;;;;;;;;11.00;9.33;;;;;16.47;75.17;30655.84;4994805;28;45369;-76
2022/10/03 02:37:56;;;;;;;;;12.33;10.67;;;;;16.48;74.84;30344.47;5013580;27;45487;-76
2022/10/03 02:40:36;;;;;;;;;12.67;12.00;;;;;16.50;75.13;30184.06;5009029;28;45418;-76
2022/10/03 02:43:45;;;;;;;;;11.00;9.33;;;;;16.49;75.20;30255.16;5029967;28;45445;-76
2022/10/03 02:46:19;;;;;;;;;17.00;12.00;;;;;16.51;75.02;30512.41;5034101;28;45422;-76
2022/10/03 02:49:09;;;;;;;;;10.00;10.00;;;;;16.49;75.26;30609.38;5033607;28;45758;-76
2022/10/03 02:52:21;;;;;;;;;13.33;12.33;;;;;16.50;74.98;30319.16;5034697;28;45393;-74
2022/10/03 02:55:22;;;;;;;;;12.33;10.67;;;;;16.52;75.26;29691.16;4956439;28;45440;-74
2022/10/03 02:58:18;;;;;;;;;13.33;13.00;;;;;16.51;75.31;30472.75;4948858;28;45390;-75
2022/10/03 03:01:04;;;;;;;;;11.67;11.00;;;;;16.50;75.38;30657.25;4956560;28;45532;-74
2022/10/03 03:04:12;;;;;;;;;12.33;11.33;;;;;16.56;75.33;30488.75;4956121;28;46242;-74
2022/10/03 03:07:09;;;;;;;;;10.33;9.00;;;;;16.56;75.60;30584.19;4879082;29;45386;-75
2022/10/03 03:09:35;;;;;;;;;12.00;10.67;;;;;16.57;75.20;30608.53;4857159;29;45414;-74
2022/10/03 03:12:18;;;;;;;;;10.33;9.67;;;;;16.59;75.27;30514.47;4847896;29;45928;-75
2022/10/03 03:15:21;;;;;;;;;15.00;11.67;;;;;16.59;75.34;30350.28;4847165;29;46512;-74
2022/10/03 03:18:11;;;;;;;;;13.67;12.00;;;;;16.60;74.99;29703.41;4898114;29;45499;-74
2022/10/03 03:20:54;;;;;;;;;12.33;12.33;;;;;16.59;75.42;30289.47;4898373;29;45478;-74
2022/10/03 03:23:33;;;;;;;;;11.33;9.00;;;;;16.60;75.90;30676.03;4897871;28;45382;-74
2022/10/03 03:26:17;;;;;;;;;5.67;4.33;;;;;16.60;75.55;30842.59;4897148;29;47614;-74
2022/10/03 03:28:48;;;;;;;;;17.67;15.00;;;;;16.63;75.75;30812.84;4895641;29;45563;-74
2022/10/03 03:31:17;;;;;;;;;15.67;14.67;;;;;16.65;75.58;30697.34;4911843;28;45477;-74
2022/10/03 03:33:59;;;;;;;;;17.00;14.33;;;;;16.66;75.89;30862.13;4935602;28;45482;-74
2022/10/03 03:36:38;;;;;;;;;24.00;24.00;;;;;16.70;75.78;30702.78;4934641;28;46323;-74
2022/10/03 03:39:21;;;;;;;;;35.67;31.67;;;;;16.73;75.68;30537.81;4935367;28;45431;-71
2022/10/03 03:42:17;;;;;;;;;34.33;32.00;;;;;16.77;76.08;30925.91;4920060;28;45505;-74
2022/10/03 03:45:12;;;;;;;;;47.33;37.33;;;;;16.82;75.69;30505.81;4989516;28;45301;-74
2022/10/03 03:47:59;;;;;;;;;39.33;35.33;;;;;16.85;76.12;30573.59;4980710;28;46557;-74
2022/10/03 03:50:43;;;;;;;;;33.33;30.67;;;;;16.91;76.10;30499.94;4993254;27;45368;-75
2022/10/03 03:53:20;;;;;;;;;42.67;36.00;;;;;16.94;75.72;30199.75;4983160;28;45445;-75
2022/10/03 03:56:11;;;;;;;;;40.33;35.33;;;;;16.95;75.83;29581.66;4962204;27;45383;-76
2022/10/03 03:58:53;;;;;;;;;37.00;29.67;;;;;16.97;75.62;29540.41;4993849;28;46224;-76
2022/10/03 04:01:40;;;;;;;;;31.67;29.33;;;;;16.99;75.77;29282.28;4992233;28;46095;-76
2022/10/03 04:04:24;;;;;;;;;28.00;24.67;;;;;17.02;75.49;29534.91;5048994;27;45358;-76
2022/10/03 04:07:08;;;;;;;;;19.00;15.67;;;;;16.98;75.81;30040.59;4974339;28;45722;-76
2022/10/03 04:10:11;;;;;;;;;18.33;14.33;;;;;17.00;76.33;30002.28;4991493;28;46267;-76
2022/10/03 04:12:52;;;;;;;;;16.33;14.00;;;;;17.04;76.09;29633.84;4993293;28;45512;-76
2022/10/03 04:15:24;;;;;;;;;13.00;13.00;;;;;17.01;76.09;30042.50;4993470;27;45442;-76
2022/10/03 04:21:27;;;;;;;;;16.33;13.00;;;;;17.00;76.41;30414.97;5048241;28;45521;-76
2022/10/03 04:24:02;;;;;;;;;14.33;10.67;;;;;17.01;76.04;30036.94;5054083;28;45569;-76
2022/10/03 04:27:00;;;;;;;;;11.67;11.67;;;;;16.97;76.31;29854.91;5057087;28;45395;-76
2022/10/03 04:29:47;;;;;;;;;12.33;10.67;;;;;16.97;76.59;30003.28;5040809;28;45712;-76
2022/10/03 04:32:25;;;;;;;;;18.67;13.33;;;;;16.98;76.19;29644.09;5054884;27;47111;-73
2022/10/03 04:35:03;;;;;;;;;12.33;10.00;;;;;16.96;75.84;29502.84;5057579;28;45344;-76
2022/10/03 04:37:40;;;;;;;;;10.67;9.00;;;;;16.96;75.93;29196.06;5055765;28;45572;-76
2022/10/03 04:40:14;;;;;;;;;15.33;12.00;;;;;16.98;76.21;29355.81;5041416;28;45678;-76
2022/10/03 04:42:54;;;;;;;;;15.33;11.33;;;;;16.97;75.90;29074.94;5038300;28;46306;-76
2022/10/03 04:45:47;;;;;;;;;12.33;9.67;;;;;16.97;76.08;29056.44;5055644;28;45473;-76
2022/10/03 04:48:15;;;;;;;;;15.00;11.67;;;;;16.98;76.14;28919.19;5052895;28;45403;-76
2022/10/03 04:51:04;;;;;;;;;14.67;12.33;;;;;16.98;75.85;28676.16;5048998;28;45462;-76
2022/10/03 04:53:40;;;;;;;;;14.00;12.33;;;;;16.97;75.75;28554.00;4984328;28;45439;-76
2022/10/03 04:56:48;;;;;;;;;15.00;10.00;;;;;16.95;76.03;28854.13;4989729;28;45432;-76
2022/10/03 04:59:36;;;;;;;;;10.00;9.00;;;;;16.95;75.82;28603.19;5013882;28;45377;-76
2022/10/03 05:02:28;;;;;;;;;10.33;7.33;;;;;16.92;75.85;28398.03;5015821;28;45458;-76
2022/10/03 05:05:10;;;;;;;;;10.33;8.67;;;;;16.90;75.68;27994.91;5006615;28;45591;-75
2022/10/03 05:07:59;;;;;;;;;9.67;8.00;;;;;16.88;75.99;28145.09;5023732;28;45513;-75
2022/10/03 05:10:51;;;;;;;;;9.67;9.67;;;;;16.88;75.83;27862.22;5027666;28;45359;-75
2022/10/03 05:13:50;;;;;;;;;10.00;8.33;;;;;16.87;75.38;27599.78;4946433;28;45596;-75
2022/10/03 05:16:30;;;;;;;;;11.33;8.33;;;;;16.83;75.44;27582.16;4937390;28;46643;-75
2022/10/03 05:19:35;;;;;;;;;13.33;9.67;;;;;16.81;75.62;27940.34;4941674;28;45638;-75
2022/10/03 05:22:12;;;;;;;;;14.67;11.67;;;;;16.83;75.40;27336.13;4948011;28;45401;-75
2022/10/03 05:24:43;;;;;;;;;12.33;9.00;;;;;16.85;75.73;27318.63;4944603;28;45552;-74
2022/10/03 05:27:44;;;;;;;;;14.00;10.00;;;;;16.83;75.58;27632.38;4942684;28;45663;-74
2022/10/03 05:30:34;;;;;;;;;8.67;8.00;;;;;16.85;75.67;28217.53;4941728;28;45413;-74
2022/10/03 05:33:11;;;;;;;;;10.67;9.67;;;;;16.84;75.67;28143.03;4937921;28;45450;-73
2022/10/03 05:36:04;;;;;;;;;12.00;12.00;;;;;16.76;76.02;28252.53;4986320;28;45523;-73
2022/10/03 05:38:58;;;;;;;;;13.00;10.33;;;;;16.87;75.70;28326.97;4998759;28;47090;-74
2022/10/03 05:41:35;;;;;;;;;12.67;9.67;;;;;16.86;75.81;28524.47;5002012;28;45455;-74
2022/10/03 05:44:00;;;;;;;;;16.00;12.33;;;;;16.89;76.24;28946.44;4995609;28;45696;-74
2022/10/03 05:47:01;;;;;;;;;11.33;9.33;;;;;16.92;76.37;29191.28;4987578;28;45483;-74
2022/10/03 05:49:35;;;;;;;;;15.00;11.67;;;;;16.92;76.22;29064.09;4949789;28;46459;-74
2022/10/03 05:52:52;;;;;;;;;12.00;12.00;;;;;16.92;76.43;28860.50;5004597;28;45544;-74
2022/10/03 05:55:36;;;;;;;;;9.67;9.00;;;;;16.94;76.24;28501.94;4908795;28;45732;-74
2022/10/03 05:58:14;;;;;;;;;15.00;11.67;;;;;16.92;76.00;28609.56;4916384;28;45571;-74
2022/10/03 06:00:54;;;;;;;;;12.00;12.00;;;;;16.90;76.02;28396.75;4921055;28;45814;-75
2022/10/03 06:03:22;;;;;;;;;11.67;10.67;;;;;16.91;76.14;28471.56;4929343;28;45628;-75
2022/10/03 06:06:06;;;;;;;;;14.33;11.67;;;;;16.91;76.09;28638.13;4919186;28;45469;-75
2022/10/03 06:08:48;;;;;;;;;14.33;12.00;;;;;16.94;76.20;28478.16;4908631;28;45506;-76
2022/10/03 06:11:33;;;;;;;;;14.00;12.00;;;;;16.86;76.36;28503.31;4921087;28;45588;-75
2022/10/03 06:14:28;;;;;;;;;17.33;12.00;;;;;16.95;76.33;28526.53;4927732;28;46085;-77
2022/10/03 06:17:12;;;;;;;;;10.67;9.00;;;;;16.97;76.13;28482.34;4935024;28;45514;-79
2022/10/03 06:19:54;;;;;;;;;18.33;14.00;;;;;16.91;76.14;28643.16;4921184;28;45566;-78
2022/10/03 06:22:20;;;;;;;;;12.33;12.00;;;;;16.98;76.32;28400.91;4931220;28;46510;-78
2022/10/03 06:24:54;;;;;;;;;11.33;10.00;;;;;16.98;76.42;28699.69;4885091;29;45525;-77
2022/10/03 06:27:41;;;;;;;;;14.00;12.00;;;;;16.97;76.30;28477.31;4886170;28;45556;-87
2022/10/03 06:30:12;;;;;;;;;16.00;11.33;;;;;16.96;76.27;28703.94;4897128;28;45637;-76
2022/10/03 06:33:16;;;;;;;;;13.00;11.33;;;;;16.95;76.46;28391.41;5007089;27;45499;-80
2022/10/03 06:35:53;;;;;;;;;9.00;9.00;;;;;16.98;76.27;28149.72;4996350;27;45490;-79
2022/10/03 06:38:56;;;;;;;;;18.33;14.33;;;;;17.00;76.07;27799.13;4989441;28;45475;-77
2022/10/03 06:41:51;;;;;;;;;8.00;8.00;;;;;17.00;75.86;27027.19;4991969;28;45530;-77
2022/10/03 06:44:44;;;;;;;;;12.33;9.33;;;;;16.82;75.64;26157.38;4979187;28;47807;-77
2022/10/03 06:47:30;;;;;;;;;14.33;11.67;;;;;16.80;75.13;25110.38;4990703;28;45372;-77
2022/10/03 06:50:01;;;;;;;;;10.33;6.33;;;;;16.98;75.20;24442.25;5032762;27;45504;-78
2022/10/03 06:52:50;;;;;;;;;12.33;10.00;;;;;17.00;74.87;23732.66;5087915;27;45518;-79
2022/10/03 06:55:34;;;;;;;;;13.33;11.00;;;;;17.04;74.90;22659.38;5025259;27;47250;-77
2022/10/03 06:58:36;;;;;;;;;12.67;11.00;;;;;17.07;74.77;21496.50;5043287;27;45538;-77
2022/10/03 07:01:10;;;;;;;;;9.00;8.33;;;;;17.06;74.37;18078.88;4995672;28;45399;-76
2022/10/03 07:04:05;;;;;;;;;8.67;8.67;;;;;17.07;74.35;18037.19;5054819;27;45550;-76
2022/10/03 07:07:06;;;;;;;;;11.00;9.33;;;;;17.01;74.21;17193.91;5026913;27;45512;-76
2022/10/03 07:09:52;;;;;;;;;9.67;8.67;;;;;17.13;73.90;16243.06;5061334;28;45605;-77
2022/10/03 07:12:46;;;;;;;;;11.67;10.00;;;;;17.09;73.56;15021.66;5057094;28;45568;-77
2022/10/03 07:15:32;;;;;;;;;10.00;10.00;;;;;16.99;73.46;11644.53;5056015;28;45429;-77
2022/10/03 07:18:20;;;;;;;;;12.67;9.67;;;;;16.98;73.46;9265.00;5054668;28;45420;-77
2022/10/03 07:21:00;;;;;;;;;14.67;10.67;;;;;16.86;72.88;6787.88;5052651;28;45458;-77
2022/10/03 07:23:42;;;;;;;;;9.33;8.33;;;;;16.85;72.60;5620.72;5051194;28;45535;-77
2022/10/03 07:26:10;;;;;;;;;8.33;8.33;;;;;16.80;72.91;6014.13;5051730;28;45766;-77
2022/10/03 07:28:55;;;;;;;;;8.33;8.33;;;;;16.79;72.79;7301.97;5050560;28;45996;-77
2022/10/03 07:31:53;;;;;;;;;8.67;8.33;;;;;16.78;72.39;4999.50;5050071;28;45765;-77
2022/10/03 07:34:42;;;;;;;;;11.67;9.00;;;;;16.73;73.10;7045.97;5037453;28;45511;-77
2022/10/03 07:40:55;;;;;;;;;8.00;7.67;;;;;16.80;72.33;-277.84;5051750;28;45564;-77
2022/10/03 07:43:47;;;;;;;;;5.67;4.67;;;;;16.82;71.83;-3760.84;5028891;27;45691;-77
2022/10/03 07:46:18;;;;;;;;;7.67;5.00;;;;;16.85;71.78;-4523.72;4988995;28;45735;-77
2022/10/03 07:48:51;;;;;;;;;9.33;8.33;;;;;16.84;71.87;-2153.41;4987055;27;45539;-77
2022/10/03 07:51:43;;;;;;;;;6.67;6.67;;;;;16.90;72.31;-1765.09;4988967;28;45811;-74
2022/10/03 07:54:27;;;;;;;;;7.00;5.67;;;;;16.91;71.82;-4190.91;4989575;28;45493;-75
2022/10/03 07:57:14;;;;;;;;;8.67;8.00;;;;;16.92;71.74;-5889.44;4993680;27;45426;-74
2022/10/03 08:00:06;;;;;;;;;10.00;8.33;;;;;16.93;71.77;-4634.00;5063646;27;45305;-74
2022/10/03 08:03:02;;;;;;;;;7.33;7.33;;;;;16.94;71.35;-5184.50;4996709;27;45542;-75
2022/10/03 08:05:36;;;;;;;;;7.67;7.67;;;;;16.97;71.61;-5467.66;4992438;27;45378;-74
2022/10/03 08:08:19;;;;;;;;;9.67;7.67;;;;;16.97;71.40;-6211.97;4967559;28;45496;-75
2022/10/03 08:11:03;;;;;;;;;12.67;8.67;;;;;16.97;71.23;-7110.75;4994336;27;45561;-75
2022/10/03 08:14:06;;;;;;;;;11.00;9.00;;;;;17.00;71.30;-8085.50;4991947;27;46372;-74
2022/10/03 08:16:51;;;;;;;;;7.00;7.00;;;;;17.02;71.31;-8703.81;4994958;27;45579;-75
2022/10/03 08:19:35;;;;;;;;;9.67;9.67;;;;;17.05;71.21;-6207.16;4994941;27;45696;-75
2022/10/03 08:22:14;;;;;;;;;8.33;8.33;;;;;17.11;70.99;-10074.31;4994440;28;45234;-75
2022/10/03 08:25:01;;;;;;;;;7.67;5.33;;;;;17.14;70.71;-10572.16;5003270;27;45455;-75
2022/10/03 08:28:20;;;;;;;;;8.33;6.67;;;;;17.17;70.82;-11569.94;5010776;27;45478;-75
2022/10/03 08:31:24;;;;;;;;;15.33;9.67;;;;;17.21;70.29;-13470.69;5036261;28;45542;-75
2022/10/03 08:34:14;;;;;;;;;8.67;8.67;;;;;17.27;70.97;-9528.59;5033445;28;45544;-74
2022/10/03 08:36:47;;;;;;;;;10.33;7.67;;;;;17.27;70.07;-15415.44;5030829;28;46124;-75
2022/10/03 08:39:29;;;;;;;;;11.67;9.33;;;;;17.15;70.59;-13244.69;5033443;28;45791;-74
2022/10/03 08:41:57;;;;;;;;;8.00;8.00;;;;;17.29;70.30;-14178.53;5030761;28;45357;-74
2022/10/03 08:44:46;;;;;;;;;10.33;7.00;;;;;17.35;70.19;-14516.97;5031271;28;45374;-75
2022/10/03 08:48:09;;;;;;;;;8.00;7.00;;;;;17.38;69.98;-17948.97;4957112;28;46289;-74
2022/10/03 08:50:59;;;;;;;;;10.00;10.00;;;;;17.33;69.64;-17838.09;4896896;29;45473;-75
2022/10/03 08:53:37;;;;;;;;;7.67;7.67;;;;;17.38;69.94;-18051.03;4899729;29;45519;-77
2022/10/03 08:56:12;;;;;;;;;8.00;7.00;;;;;17.43;69.78;-16859.88;4893324;29;45595;-76
2022/10/03 08:59:02;;;;;;;;;11.00;8.67;;;;;17.49;69.83;-17928.06;4905269;28;46328;-76
2022/10/03 09:02:03;;;;;;;;;11.00;9.33;;;;;17.51;69.42;-19622.56;4902289;28;45663;-78
2022/10/03 09:04:45;;;;;;;;;9.00;9.00;;;;;17.60;69.77;-18858.84;4911256;28;45460;-76
2022/10/03 09:07:14;;;;;;;;;10.67;7.67;;;;;17.65;69.23;-19680.56;4914181;28;45644;-77
2022/10/03 09:10:09;;;;;;;;;9.00;5.67;;;;;17.70;69.16;-19681.75;4930721;28;45437;-77
2022/10/03 09:12:49;;;;;;;;;13.33;8.67;;;;;17.77;68.66;-19683.50;4938235;28;45489;-77
2022/10/03 09:15:49;;;;;;;;;12.00;10.33;;;;;17.82;68.88;-19684.97;4937949;28;45528;-76
2022/10/03 09:18:45;;;;;;;;;10.33;9.67;;;;;17.87;68.84;-19686.19;4931501;28;45418;-77
2022/10/03 09:22:00;;;;;;;;;10.00;9.67;;;;;17.87;68.82;-19686.31;4937950;28;47277;-77
2022/10/03 09:25:00;;;;;;;;;10.33;9.67;;;;;17.91;68.48;-19687.25;4972973;28;45463;-76
2022/10/03 09:28:00;;;;;;;;;12.00;10.67;;;;;17.91;68.09;-19687.38;4975985;27;45406;-76
2022/10/03 09:30:34;;;;;;;;;18.33;17.67;;;;;17.94;68.47;-19688.06;4964629;27;45600;-77
2022/10/03 09:33:38;;;;;;;;;15.00;12.33;;;;;17.96;68.56;-19688.59;4992520;27;47446;-77
2022/10/03 09:36:24;;;;;;;;;11.67;10.00;;;;;17.95;68.11;-19688.31;4994890;27;45757;-77
2022/10/03 09:39:23;;;;;;;;;11.00;11.00;;;;;17.96;67.97;-19688.59;4978160;28;46627;-77
2022/10/03 09:42:06;;;;;;;;;16.67;14.00;;;;;17.99;68.30;-19689.25;4982783;27;45438;-77
2022/10/03 09:45:00;;;;;;;;;16.67;13.67;;;;;17.99;68.16;-19689.25;4995079;27;46196;-77
2022/10/03 09:47:57;;;;;;;;;21.33;15.67;;;;;18.02;67.78;-19690.06;5052825;27;45376;-77
2022/10/03 09:50:28;;;;;;;;;13.00;13.00;;;;;18.06;67.49;-19691.25;4983058;27;45434;-77
2022/10/03 09:53:01;;;;;;;;;17.33;11.00;;;;;18.09;67.29;-19692.06;4983658;27;45412;-76
2022/10/03 09:55:41;;;;;;;;;12.33;10.67;;;;;18.09;66.94;-19692.06;4993172;27;45388;-77
2022/10/03 09:58:38;;;;;;;;;13.33;13.00;;;;;18.13;67.18;-19693.13;4994876;28;45488;-77
2022/10/03 10:01:25;;;;;;;;;12.00;11.00;;;;;18.16;66.77;-19693.81;4984321;28;45408;-77
2022/10/03 10:03:59;;;;;;;;;11.00;10.00;;;;;18.20;66.71;-19694.75;4995564;27;45624;-77
2022/10/03 10:07:12;;;;;;;;;12.33;11.33;;;;;18.20;66.79;-19694.75;4994975;27;46603;-77
2022/10/03 10:09:49;;;;;;;;;16.00;15.00;;;;;18.20;67.26;-19694.88;4985330;28;45562;-77
2022/10/03 10:12:20;;;;;;;;;9.67;9.67;;;;;18.25;67.34;-19696.06;4995496;28;45507;-77
2022/10/03 10:15:02;;;;;;;;;10.33;9.67;;;;;18.23;67.41;-19695.66;4996138;28;45451;-76
2022/10/03 10:17:51;;;;;;;;;9.67;9.00;;;;;18.25;66.94;-19696.06;4995095;28;45474;-76
2022/10/03 10:20:30;;;;;;;;;11.50;9.00;;;;;18.19;66.92;-19694.59;4995920;28;45439;-77
2022/10/03 10:23:06;;;;;;;;;13.67;11.33;;;;;18.30;66.75;-19697.53;4995936;28;45285;-77
2022/10/03 10:25:59;;;;;;;;;11.67;9.00;;;;;18.32;66.23;-19697.94;4995863;28;45546;-77
2022/10/03 10:28:36;;;;;;;;;9.67;9.33;;;;;18.35;66.39;-19698.75;4995033;28;47778;-76
2022/10/03 10:31:22;;;;;;;;;9.67;8.00;;;;;18.40;66.62;-19700.09;4995395;28;45351;-77
2022/10/03 10:34:21;;;;;;;;;10.33;8.33;;;;;18.43;65.98;-19700.88;4995496;28;45466;-77
2022/10/03 10:37:17;;;;;;;;;15.00;11.00;;;;;18.48;65.90;-19702.22;4983613;28;45450;-77
2022/10/03 10:40:09;;;;;;;;;12.00;12.00;;;;;18.50;65.86;-19702.63;4995019;28;47041;-77
2022/10/03 10:43:09;;;;;;;;;12.33;12.00;;;;;18.55;65.55;-19704.09;4994856;28;45324;-77
2022/10/03 10:45:47;;;;;;;;;11.67;10.67;;;;;18.57;65.53;-19704.50;4984887;27;45436;-77
2022/10/03 10:48:15;;;;;;;;;14.67;12.33;;;;;18.70;65.54;-19707.84;4994871;28;45579;-77
2022/10/03 10:51:15;;;;;;;;;14.67;11.00;;;;;18.76;64.97;-19709.44;4994412;28;46127;-76
2022/10/03 10:54:12;;;;;;;;;11.33;11.33;;;;;18.81;65.06;-19710.66;4994775;27;45407;-77
2022/10/03 10:56:57;;;;;;;;;16.00;10.33;;;;;18.86;64.93;-19711.97;4994410;27;45402;-77
2022/10/03 10:59:55;;;;;;;;;9.67;9.67;;;;;18.85;65.04;-19711.72;4994853;27;45511;-77
2022/10/03 11:02:39;;;;;;;;;11.33;9.67;;;;;18.92;64.93;-19713.72;5034735;28;45591;-76
2022/10/03 11:05:41;;;;;;;;;11.33;9.33;;;;;18.96;64.74;-19714.66;5034458;28;45483;-77
2022/10/03 11:08:19;;;;;;;;;17.00;12.50;;;;;19.03;64.71;-19716.50;5034690;28;45331;-77
2022/10/03 11:10:47;;;;;;;;;15.67;11.67;;;;;19.07;64.11;-19717.44;5034861;28;45699;-77
2022/10/03 11:13:31;;;;;;;;;15.33;11.67;;;;;19.09;64.11;-19718.13;5030817;28;46419;-77
2022/10/03 11:16:02;;;;;;;;;15.33;10.67;;;;;19.14;63.99;-19719.47;5026241;28;45532;-77
2022/10/03 11:19:18;;;;;;;;;16.00;11.33;;;;;19.21;63.91;-19721.19;5028919;28;45593;-77
2022/10/03 11:22:03;;;;;;;;;20.33;13.33;;;;;19.27;63.77;-19722.66;4957219;28;45440;-77
2022/10/03 11:24:37;;;;;;;;;15.33;11.00;;;;;19.34;64.41;-19724.53;4957833;28;46559;-77
2022/10/03 11:27:35;;;;;;;;;13.00;12.00;;;;;19.40;63.14;-19726.13;4960434;28;45329;-77
2022/10/03 11:30:32;;;;;;;;;13.00;11.33;;;;;19.47;63.14;-19728.00;4880702;29;45579;-77
2022/10/03 11:33:32;;;;;;;;;11.67;11.67;;;;;19.55;62.70;-19730.00;4880015;29;45347;-77
2022/10/03 11:36:16;;;;;;;;;11.67;11.67;;;;;19.62;62.83;-19731.88;4878524;29;45591;-77
2022/10/03 11:39:01;;;;;;;;;14.33;12.67;;;;;19.65;62.33;-19732.66;4885808;28;46142;-77
2022/10/03 11:41:45;;;;;;;;;16.33;12.33;;;;;19.70;62.50;-19734.00;4905848;28;45484;-77
2022/10/03 11:44:32;;;;;;;;;15.33;11.67;;;;;19.72;62.20;-19734.53;4901808;28;45490;-77
2022/10/03 11:47:01;;;;;;;;;19.33;15.67;;;;;19.67;61.80;-19733.06;4903591;28;45616;-77
2022/10/03 11:49:51;;;;;;;;;15.00;11.67;;;;;19.68;62.37;-19733.34;4913377;28;45550;-77
2022/10/03 11:52:31;;;;;;;;;15.33;12.67;;;;;19.73;62.23;-19734.81;4898104;28;45401;-74
2022/10/03 11:55:15;;;;;;;;;14.33;13.33;;;;;19.80;62.01;-19736.69;4903364;28;45402;-74
2022/10/03 11:57:49;;;;;;;;;13.67;10.67;;;;;19.97;61.67;-19740.94;4948097;28;47425;-74
2022/10/03 12:00:22;;;;;;;;;13.67;13.67;;;;;19.83;61.34;-19737.34;4992045;28;45417;-74
2022/10/03 12:03:05;;;;;;;;;21.67;16.67;;;;;19.85;61.28;-19737.88;4993873;28;45512;-75
2022/10/03 12:05:52;;;;;;;;;17.67;16.33;;;;;19.88;61.37;-19738.69;4985442;28;45476;-75
2022/10/03 12:11:36;;;;;;;;;14.67;13.00;;;;;20.27;60.44;-19748.69;5002565;28;45537;-74
2022/10/03 12:14:27;;;;;;;;;21.33;13.67;;;;;20.34;60.97;-19750.53;4979719;28;45500;-74
2022/10/03 12:16:56;;;;;;;;;15.67;15.67;;;;;20.61;59.76;-19757.63;4997550;27;45478;-75
2022/10/03 12:19:29;;;;;;;;;11.67;11.67;;;;;20.70;59.38;-19759.88;4993254;27;45376;-74
2022/10/03 12:22:16;;;;;;;;;12.00;11.67;;;;;20.89;59.56;-19764.81;4993311;28;45432;-75
2022/10/03 12:24:44;;;;;;;;;13.00;13.00;;;;;21.19;58.73;-19772.66;4993261;27;45512;-75
2022/10/03 12:27:09;;;;;;;;;13.67;13.67;;;;;21.10;57.98;-19770.28;4993281;28;45354;-75
2022/10/03 12:29:44;;;;;;;;;10.33;9.33;;;;;20.94;58.14;-19766.13;4975789;28;46973;-75
2022/10/03 12:32:25;;;;;;;;;13.67;11.33;;;;;20.81;58.96;-19762.81;4991982;28;45488;-75
2022/10/03 12:35:13;;;;;;;;;15.33;13.67;;;;;20.98;57.88;-19767.22;4972435;28;45398;-74
2022/10/03 12:37:59;;;;;;;;;10.67;10.33;;;;;20.98;57.81;-19767.34;4987892;27;45409;-75
2022/10/03 12:40:39;;;;;;;;;14.00;9.67;;;;;21.22;56.86;-19773.47;4994651;27;47204;-75
2022/10/03 12:43:25;;;;;;;;;15.67;12.67;;;;;21.38;56.78;-19777.59;4996048;27;45504;-74
2022/10/03 12:46:01;;;;;;;;;12.67;11.67;;;;;21.65;56.45;-19784.78;4978647;28;45412;-74
2022/10/03 12:48:32;;;;;;;;;10.33;10.33;;;;;21.91;55.73;-19791.56;4996448;27;45456;-75
2022/10/03 12:51:16;;;;;;;;;12.33;10.67;;;;;21.83;55.70;-19789.31;4996114;28;46133;-77
2022/10/03 12:54:06;;;;;;;;;13.00;11.67;;;;;21.93;55.53;-19792.09;4996008;27;45564;-77
2022/10/03 12:56:41;;;;;;;;;8.67;8.67;;;;;22.40;55.22;-19804.22;4996070;27;46368;-77